createdAt,value
2023-04-19T00:00:50.534Z,11.88
2023-04-19T00:01:50.547Z,11.87
2023-04-19T00:02:50.669Z,11.87
2023-04-19T00:03:50.628Z,11.84
2023-04-19T00:04:50.543Z,11.84
2023-04-19T00:05:50.492Z,11.84
2023-04-19T00:06:50.484Z,11.87
2023-04-19T00:07:50.421Z,11.87
2023-04-19T00:08:50.479Z,11.85
2023-04-19T00:09:50.449Z,11.87
2023-04-19T00:10:50.450Z,11.85
2023-04-19T00:11:50.412Z,11.85
2023-04-19T00:12:50.366Z,11.87
2023-04-19T00:13:50.378Z,11.88
2023-04-19T00:14:50.343Z,11.88
2023-04-19T00:15:50.346Z,11.88
2023-04-19T00:16:50.387Z,11.88
2023-04-19T00:17:50.357Z,11.87
2023-04-19T00:18:50.325Z,11.88
2023-04-19T00:19:50.268Z,11.88
2023-04-19T00:20:50.297Z,11.90
2023-04-19T00:21:50.306Z,11.87
2023-04-19T00:22:50.266Z,11.88
2023-04-19T00:23:50.208Z,11.87
2023-04-19T00:24:50.204Z,11.88
2023-04-19T00:25:50.196Z,11.88
2023-04-19T00:26:50.205Z,11.85
2023-04-19T00:27:50.213Z,11.87
2023-04-19T00:28:50.158Z,11.87
2023-04-19T00:29:50.142Z,11.87
2023-04-19T00:30:50.228Z,11.88
2023-04-19T00:31:50.129Z,11.87
2023-04-19T00:32:50.173Z,11.88
2023-04-19T00:33:50.117Z,11.90
2023-04-19T00:34:50.111Z,11.90
2023-04-19T00:35:50.161Z,11.88
2023-04-19T00:36:50.082Z,11.90
2023-04-19T00:37:50.031Z,11.93
2023-04-19T00:38:50.060Z,11.90
2023-04-19T00:39:50.030Z,11.90
2023-04-19T00:40:50.054Z,11.90
2023-04-19T00:41:49.980Z,11.87
2023-04-19T00:42:49.971Z,11.87
2023-04-19T00:43:49.946Z,11.90
2023-04-19T00:44:49.965Z,11.88
2023-04-19T00:45:50.024Z,11.88
2023-04-19T00:46:49.955Z,11.88
2023-04-19T00:47:49.951Z,11.88
2023-04-19T00:48:49.954Z,11.88
2023-04-19T00:49:49.880Z,11.87
2023-04-19T00:50:49.902Z,11.87
2023-04-19T00:51:49.842Z,11.87
2023-04-19T00:52:49.848Z,11.87
2023-04-19T00:53:49.832Z,11.84
2023-04-19T00:54:49.841Z,11.81
2023-04-19T00:55:49.846Z,11.81
2023-04-19T00:56:49.811Z,11.79
2023-04-19T00:57:49.786Z,11.81
2023-04-19T00:58:49.825Z,11.82
2023-04-19T00:59:49.764Z,11.81
2023-04-19T01:00:49.826Z,11.84
2023-04-19T01:01:49.763Z,11.82
2023-04-19T01:02:49.917Z,11.84
2023-04-19T01:03:49.820Z,11.84
2023-04-19T01:04:49.710Z,11.82
2023-04-19T01:05:49.737Z,11.82
2023-04-19T01:06:49.682Z,11.84
2023-04-19T01:07:49.635Z,11.84
2023-04-19T01:08:49.631Z,11.84
2023-04-19T01:09:49.625Z,11.84
2023-04-19T01:10:49.661Z,11.85
2023-04-19T01:11:49.578Z,11.84
2023-04-19T01:12:49.581Z,11.81
2023-04-19T01:13:49.559Z,11.81
2023-04-19T01:14:49.549Z,11.79
2023-04-19T01:15:49.583Z,11.79
2023-04-19T01:16:49.556Z,11.79
2023-04-19T01:17:49.582Z,11.79
2023-04-19T01:18:49.514Z,11.77
2023-04-19T01:19:49.498Z,11.77
2023-04-19T01:20:49.524Z,11.75
2023-04-19T01:21:49.502Z,11.75
2023-04-19T01:22:49.474Z,11.75
2023-04-19T01:23:49.415Z,11.75
2023-04-19T01:24:49.454Z,11.74
2023-04-19T01:25:49.416Z,11.74
2023-04-19T01:26:49.467Z,11.74
2023-04-19T01:27:49.408Z,11.72
2023-04-19T01:28:49.403Z,11.72
2023-04-19T01:29:49.366Z,11.70
2023-04-19T01:30:49.421Z,11.70
2023-04-19T01:31:49.401Z,11.72
2023-04-19T01:32:49.456Z,11.72
2023-04-19T01:33:49.302Z,11.72
2023-04-19T01:34:49.291Z,11.74
2023-04-19T01:35:49.309Z,11.74
2023-04-19T01:36:49.290Z,11.74
2023-04-19T01:37:49.239Z,11.72
2023-04-19T01:38:49.247Z,11.70
2023-04-19T01:39:49.221Z,11.70
2023-04-19T01:40:49.298Z,11.72
2023-04-19T01:41:49.209Z,11.72
2023-04-19T01:42:49.213Z,11.70
2023-04-19T01:43:49.195Z,11.70
2023-04-19T01:44:49.182Z,11.69
2023-04-19T01:45:49.200Z,11.67
2023-04-19T01:46:49.194Z,11.67
2023-04-19T01:47:49.185Z,11.64
2023-04-19T01:48:49.142Z,11.64
2023-04-19T01:49:49.102Z,11.62
2023-04-19T01:50:49.118Z,11.62
2023-04-19T01:51:49.098Z,11.62
2023-04-19T01:52:49.071Z,11.60
2023-04-19T01:53:49.023Z,11.60
2023-04-19T01:54:49.052Z,11.62
2023-04-19T01:55:49.049Z,11.62
2023-04-19T01:56:49.016Z,11.60
2023-04-19T01:57:48.991Z,11.57
2023-04-19T01:58:48.961Z,11.54
2023-04-19T01:59:48.997Z,11.53
2023-04-19T02:00:49.064Z,11.51
2023-04-19T02:01:48.944Z,11.51
2023-04-19T02:02:49.090Z,11.49
2023-04-19T02:03:49.114Z,11.51
2023-04-19T02:04:48.880Z,11.49
2023-04-19T02:05:48.903Z,11.49
2023-04-19T02:06:48.875Z,11.46
2023-04-19T02:07:48.860Z,11.48
2023-04-19T02:08:48.851Z,11.49
2023-04-19T02:09:48.835Z,11.49
2023-04-19T02:10:48.880Z,11.49
2023-04-19T02:11:48.810Z,11.51
2023-04-19T02:12:48.811Z,11.51
2023-04-19T02:13:48.822Z,11.49
2023-04-19T02:14:48.787Z,11.51
2023-04-19T02:15:48.765Z,11.49
2023-04-19T02:16:48.798Z,11.51
2023-04-19T02:17:48.781Z,11.51
2023-04-19T02:18:48.713Z,11.51
2023-04-19T02:19:48.715Z,11.53
2023-04-19T02:20:48.725Z,11.51
2023-04-19T02:21:48.688Z,11.51
2023-04-19T02:22:48.649Z,11.51
2023-04-19T02:23:48.675Z,11.51
2023-04-19T02:24:48.636Z,11.51
2023-04-19T02:25:48.672Z,11.53
2023-04-19T02:26:48.618Z,11.51
2023-04-19T02:27:48.630Z,11.54
2023-04-19T02:28:48.611Z,11.54
2023-04-19T02:29:48.557Z,11.53
2023-04-19T02:30:48.605Z,11.51
2023-04-19T02:31:48.576Z,11.53
2023-04-19T02:32:48.609Z,11.51
2023-04-19T02:33:48.555Z,11.51
2023-04-19T02:34:48.510Z,11.53
2023-04-19T02:35:48.517Z,11.51
2023-04-19T02:36:48.504Z,11.51
2023-04-19T02:37:48.516Z,11.51
2023-04-19T02:38:48.473Z,11.51
2023-04-19T02:39:48.460Z,11.48
2023-04-19T02:40:48.447Z,11.48
2023-04-19T02:41:48.430Z,11.46
2023-04-19T02:42:48.392Z,11.48
2023-04-19T02:43:48.410Z,11.46
2023-04-19T02:44:48.373Z,11.48
2023-04-19T02:45:48.439Z,11.46
2023-04-19T02:46:48.350Z,11.46
2023-04-19T02:47:48.400Z,11.46
2023-04-19T02:48:48.328Z,11.44
2023-04-19T02:49:48.319Z,11.44
2023-04-19T02:50:48.280Z,11.44
2023-04-19T02:51:48.303Z,11.42
2023-04-19T02:52:48.355Z,11.42
2023-04-19T02:53:48.286Z,11.41
2023-04-19T02:54:48.231Z,11.41
2023-04-19T02:55:48.262Z,11.39
2023-04-19T02:56:48.232Z,11.41
2023-04-19T02:57:48.211Z,11.41
2023-04-19T02:58:48.184Z,11.42
2023-04-19T02:59:48.178Z,11.44
2023-04-19T03:00:48.144Z,11.44
2023-04-19T03:01:48.173Z,11.44
2023-04-19T03:02:48.327Z,11.44
2023-04-19T03:03:48.251Z,11.44
2023-04-19T03:04:48.109Z,11.44
2023-04-19T03:05:48.126Z,11.46
2023-04-19T03:06:48.055Z,11.46
2023-04-19T03:07:48.120Z,11.46
2023-04-19T03:08:48.052Z,11.45
2023-04-19T03:09:48.060Z,11.45
2023-04-19T03:10:48.041Z,11.45
2023-04-19T03:11:48.039Z,11.45
2023-04-19T03:12:48.081Z,11.44
2023-04-19T03:13:48.004Z,11.45
2023-04-19T03:14:48.010Z,11.45
2023-04-19T03:15:48.027Z,11.48
2023-04-19T03:16:47.941Z,11.48
2023-04-19T03:17:48.070Z,11.48
2023-04-19T03:18:49.436Z,11.49
2023-04-19T03:19:47.941Z,11.46
2023-04-19T03:20:47.878Z,11.48
2023-04-19T03:21:47.885Z,11.48
2023-04-19T03:22:47.905Z,11.48
2023-04-19T03:23:47.882Z,11.48
2023-04-19T03:24:47.850Z,11.46
2023-04-19T03:25:47.966Z,11.45
2023-04-19T03:26:47.795Z,11.44
2023-04-19T03:27:47.823Z,11.44
2023-04-19T03:28:47.786Z,11.42
2023-04-19T03:29:48.986Z,11.42
2023-04-19T03:30:47.731Z,11.42
2023-04-19T03:31:47.839Z,11.42
2023-04-19T03:32:47.777Z,11.45
2023-04-19T03:33:47.785Z,11.42
2023-04-19T03:34:47.720Z,11.44
2023-04-19T03:35:47.782Z,11.42
2023-04-19T03:36:47.704Z,11.42
2023-04-19T03:37:47.668Z,11.42
2023-04-19T03:38:47.648Z,11.44
2023-04-19T03:39:47.670Z,11.42
2023-04-19T03:40:47.630Z,11.44
2023-04-19T03:41:47.631Z,11.44
2023-04-19T03:42:47.608Z,11.42
2023-04-19T03:43:47.641Z,11.41
2023-04-19T03:44:47.607Z,11.44
2023-04-19T03:45:47.599Z,11.42
2023-04-19T03:46:47.682Z,11.41
2023-04-19T03:47:47.590Z,11.41
2023-04-19T03:48:47.554Z,11.39
2023-04-19T03:49:47.504Z,11.39
2023-04-19T03:50:47.504Z,11.38
2023-04-19T03:51:47.477Z,11.41
2023-04-19T03:52:47.437Z,11.41
2023-04-19T03:53:47.516Z,11.42
2023-04-19T03:54:47.425Z,11.44
2023-04-19T03:55:47.447Z,11.42
2023-04-19T03:56:47.393Z,11.42
2023-04-19T03:57:47.422Z,11.41
2023-04-19T03:58:47.410Z,11.41
2023-04-19T03:59:47.358Z,11.39
2023-04-19T04:00:47.371Z,11.38
2023-04-19T04:01:47.366Z,11.41
2023-04-19T04:02:47.553Z,11.39
2023-04-19T04:03:47.730Z,11.39
2023-04-19T04:04:47.436Z,11.38
2023-04-19T04:05:47.307Z,11.41
2023-04-19T04:06:47.299Z,11.39
2023-04-19T04:07:47.300Z,11.39
2023-04-19T04:08:47.228Z,11.41
2023-04-19T04:09:47.283Z,11.42
2023-04-19T04:10:47.201Z,11.41
2023-04-19T04:11:47.223Z,11.41
2023-04-19T04:12:47.207Z,11.41
2023-04-19T04:13:47.191Z,11.39
2023-04-19T04:14:47.147Z,11.41
2023-04-19T04:15:47.239Z,11.39
2023-04-19T04:16:47.144Z,11.41
2023-04-19T04:17:47.238Z,11.41
2023-04-19T04:18:47.135Z,11.41
2023-04-19T04:19:47.135Z,11.41
2023-04-19T04:20:47.099Z,11.44
2023-04-19T04:21:47.065Z,11.42
2023-04-19T04:22:47.081Z,11.44
2023-04-19T04:23:47.113Z,11.45
2023-04-19T04:24:47.016Z,11.44
2023-04-19T04:25:47.020Z,11.42
2023-04-19T04:26:47.062Z,11.44
2023-04-19T04:27:46.988Z,11.44
2023-04-19T04:28:47.026Z,11.45
2023-04-19T04:29:46.982Z,11.44
2023-04-19T04:30:46.950Z,11.45
2023-04-19T04:31:47.023Z,11.46
2023-04-19T04:32:47.006Z,11.45
2023-04-19T04:33:46.962Z,11.45
2023-04-19T04:34:46.902Z,11.46
2023-04-19T04:35:46.915Z,11.45
2023-04-19T04:36:46.883Z,11.45
2023-04-19T04:37:46.899Z,11.44
2023-04-19T04:38:46.898Z,11.42
2023-04-19T04:39:46.891Z,11.42
2023-04-19T04:40:46.856Z,11.41
2023-04-19T04:41:46.840Z,11.44
2023-04-19T04:42:46.845Z,11.42
2023-04-19T04:43:46.836Z,11.44
2023-04-19T04:44:46.808Z,11.44
2023-04-19T04:45:46.791Z,11.45
2023-04-19T04:46:46.789Z,11.44
2023-04-19T04:47:46.798Z,11.44
2023-04-19T04:48:46.779Z,11.44
2023-04-19T04:49:46.749Z,11.41
2023-04-19T04:50:46.695Z,11.41
2023-04-19T04:51:46.732Z,11.41
2023-04-19T04:52:46.703Z,11.39
2023-04-19T04:53:46.688Z,11.38
2023-04-19T04:54:46.689Z,11.39
2023-04-19T04:55:46.654Z,11.41
2023-04-19T04:56:46.670Z,11.41
2023-04-19T04:57:46.647Z,11.42
2023-04-19T04:58:46.600Z,11.39
2023-04-19T04:59:46.633Z,11.42
2023-04-19T05:00:46.591Z,11.41
2023-04-19T05:01:46.724Z,11.41
2023-04-19T05:02:46.625Z,11.41
2023-04-19T05:03:46.585Z,11.42
2023-04-19T05:04:46.662Z,11.42
2023-04-19T05:05:46.548Z,11.42
2023-04-19T05:06:46.494Z,11.42
2023-04-19T05:07:46.580Z,11.42
2023-04-19T05:08:46.468Z,11.44
2023-04-19T05:09:46.489Z,11.42
2023-04-19T05:10:46.433Z,11.42
2023-04-19T05:11:46.469Z,11.41
2023-04-19T05:12:46.425Z,11.42
2023-04-19T05:13:46.437Z,11.42
2023-04-19T05:14:46.374Z,11.42
2023-04-19T05:15:46.384Z,11.44
2023-04-19T05:16:46.428Z,11.44
2023-04-19T05:17:46.422Z,11.42
2023-04-19T05:18:46.365Z,11.42
2023-04-19T05:19:46.353Z,11.41
2023-04-19T05:20:46.299Z,11.42
2023-04-19T05:21:46.292Z,11.41
2023-04-19T05:22:46.305Z,11.42
2023-04-19T05:23:46.361Z,11.42
2023-04-19T05:24:46.258Z,11.42
2023-04-19T05:25:46.236Z,11.42
2023-04-19T05:26:46.350Z,11.41
2023-04-19T05:27:46.238Z,11.42
2023-04-19T05:28:46.219Z,11.41
2023-04-19T05:29:46.224Z,11.41
2023-04-19T05:30:46.218Z,11.41
2023-04-19T05:31:46.310Z,11.41
2023-04-19T05:32:46.264Z,11.39
2023-04-19T05:33:46.140Z,11.39
2023-04-19T05:34:46.160Z,11.39
2023-04-19T05:35:46.130Z,11.39
2023-04-19T05:36:46.092Z,11.41
2023-04-19T05:37:46.083Z,11.41
2023-04-19T05:38:46.116Z,11.41
2023-04-19T05:39:46.077Z,11.42
2023-04-19T05:40:46.040Z,11.44
2023-04-19T05:41:46.060Z,11.42
2023-04-19T05:42:46.031Z,11.42
2023-04-19T05:43:46.008Z,11.41
2023-04-19T05:44:46.036Z,11.39
2023-04-19T05:45:46.006Z,11.36
2023-04-19T05:46:45.988Z,11.35
2023-04-19T05:47:45.988Z,11.35
2023-04-19T05:48:45.926Z,11.35
2023-04-19T05:49:45.972Z,11.36
2023-04-19T05:50:45.923Z,11.36
2023-04-19T05:51:46.008Z,11.36
2023-04-19T05:52:45.896Z,11.35
2023-04-19T05:53:45.891Z,11.35
2023-04-19T05:54:45.870Z,11.31
2023-04-19T05:55:45.936Z,11.28
2023-04-19T05:56:45.820Z,11.28
2023-04-19T05:57:45.826Z,11.28
2023-04-19T05:58:45.853Z,11.27
2023-04-19T05:59:45.818Z,11.26
2023-04-19T06:00:45.783Z,11.26
2023-04-19T06:01:45.829Z,11.24
2023-04-19T06:02:45.897Z,11.21
2023-04-19T06:03:45.867Z,11.23
2023-04-19T06:04:45.948Z,11.23
2023-04-19T06:05:45.868Z,11.24
2023-04-19T06:06:45.694Z,11.24
2023-04-19T06:07:54.650Z,11.24
2023-04-19T06:08:46.668Z,11.23
2023-04-19T06:09:45.782Z,11.23
2023-04-19T06:10:56.971Z,11.23
2023-04-19T06:11:50.526Z,11.20
2023-04-19T06:12:46.664Z,11.19
2023-04-19T06:13:45.651Z,11.23
2023-04-19T06:14:45.645Z,11.24
2023-04-19T06:15:45.609Z,11.26
2023-04-19T06:16:45.589Z,11.28
2023-04-19T06:17:45.862Z,11.28
2023-04-19T06:18:45.578Z,11.30
2023-04-19T06:19:45.545Z,11.30
2023-04-19T06:20:45.536Z,11.31
2023-04-19T06:21:45.521Z,11.33
2023-04-19T06:22:45.495Z,11.35
2023-04-19T06:23:45.506Z,11.36
2023-04-19T06:24:45.496Z,11.36
2023-04-19T06:25:45.487Z,11.39
2023-04-19T06:26:45.507Z,11.38
2023-04-19T06:27:45.444Z,11.39
2023-04-19T06:28:45.414Z,11.39
2023-04-19T06:29:45.440Z,11.39
2023-04-19T06:30:45.427Z,11.42
2023-04-19T06:31:45.429Z,11.41
2023-04-19T06:32:45.422Z,11.39
2023-04-19T06:33:45.371Z,11.41
2023-04-19T06:34:45.378Z,11.44
2023-04-19T06:35:45.334Z,11.48
2023-04-19T06:36:45.314Z,11.49
2023-04-19T06:37:45.308Z,11.56
2023-04-19T06:38:45.289Z,11.57
2023-04-19T06:39:45.312Z,11.62
2023-04-19T06:40:45.280Z,11.63
2023-04-19T06:41:45.250Z,11.63
2023-04-19T06:42:45.291Z,11.67
2023-04-19T06:43:45.235Z,11.72
2023-04-19T06:44:45.266Z,11.78
2023-04-19T06:45:45.201Z,11.81
2023-04-19T06:46:45.175Z,11.84
2023-04-19T06:47:45.176Z,11.85
2023-04-19T06:48:45.211Z,11.88
2023-04-19T06:49:45.179Z,11.93
2023-04-19T06:50:45.148Z,11.94
2023-04-19T06:51:45.102Z,12.00
2023-04-19T06:52:45.121Z,12.01
2023-04-19T06:53:45.120Z,12.03
2023-04-19T06:54:45.080Z,12.01
2023-04-19T06:55:45.118Z,12.01
2023-04-19T06:56:45.113Z,12.03
2023-04-19T06:57:45.022Z,12.04
2023-04-19T06:58:45.049Z,12.03
2023-04-19T06:59:45.007Z,12.04
2023-04-19T07:00:45.052Z,12.08
2023-04-19T07:01:45.150Z,12.12
2023-04-19T07:02:45.067Z,12.18
2023-04-19T07:03:45.223Z,12.25
2023-04-19T07:04:45.040Z,12.30
2023-04-19T07:05:44.979Z,12.29
2023-04-19T07:06:44.970Z,12.29
2023-04-19T07:07:44.913Z,12.30
2023-04-19T07:08:50.053Z,12.33
2023-04-19T07:09:45.907Z,12.33
2023-04-19T07:10:44.936Z,12.36
2023-04-19T07:11:44.859Z,12.38
2023-04-19T07:12:44.857Z,12.44
2023-04-19T07:13:44.852Z,12.52
2023-04-19T07:14:44.814Z,12.59
2023-04-19T07:15:44.901Z,12.63
2023-04-19T07:16:44.816Z,12.70
2023-04-19T07:17:44.835Z,12.73
2023-04-19T07:18:44.761Z,12.73
2023-04-19T07:19:44.750Z,12.79
2023-04-19T07:20:44.779Z,12.85
2023-04-19T07:21:44.728Z,12.87
2023-04-19T07:22:44.701Z,12.88
2023-04-19T07:23:44.740Z,12.91
2023-04-19T07:24:44.684Z,12.91
2023-04-19T07:25:44.713Z,12.94
2023-04-19T07:26:44.678Z,12.96
2023-04-19T07:27:44.920Z,12.98
2023-04-19T07:28:44.648Z,13.03
2023-04-19T07:29:44.600Z,13.06
2023-04-19T07:30:44.642Z,13.07
2023-04-19T07:31:44.659Z,13.04
2023-04-19T07:32:44.826Z,13.04
2023-04-19T07:33:44.569Z,13.04
2023-04-19T07:34:44.588Z,13.04
2023-04-19T07:35:44.607Z,13.07
2023-04-19T07:36:44.562Z,13.03
2023-04-19T07:37:44.538Z,13.04
2023-04-19T07:38:44.541Z,13.04
2023-04-19T07:39:44.496Z,13.09
2023-04-19T07:40:44.508Z,13.14
2023-04-19T07:41:44.453Z,13.16
2023-04-19T07:42:44.461Z,13.17
2023-04-19T07:43:44.410Z,13.19
2023-04-19T07:44:44.470Z,13.24
2023-04-19T07:45:44.427Z,13.25
2023-04-19T07:46:44.476Z,13.22
2023-04-19T07:47:44.401Z,13.16
2023-04-19T07:48:44.419Z,13.10
2023-04-19T07:49:44.338Z,13.06
2023-04-19T07:50:44.427Z,13.01
2023-04-19T07:51:44.317Z,12.96
2023-04-19T07:52:44.313Z,12.95
2023-04-19T07:53:44.327Z,12.92
2023-04-19T07:54:44.293Z,12.96
2023-04-19T07:55:44.300Z,13.03
2023-04-19T07:56:44.315Z,13.10
2023-04-19T07:57:44.258Z,13.19
2023-04-19T07:58:46.703Z,13.24
2023-04-19T07:59:44.227Z,13.31
2023-04-19T08:00:44.322Z,13.35
2023-04-19T08:01:44.395Z,13.43
2023-04-19T08:02:44.328Z,13.50
2023-04-19T08:03:44.306Z,13.55
2023-04-19T08:04:44.470Z,13.57
2023-04-19T08:05:44.210Z,13.54
2023-04-19T08:06:44.213Z,13.55
2023-04-19T08:07:44.138Z,13.62
2023-04-19T08:08:44.135Z,13.68
2023-04-19T08:09:44.130Z,13.65
2023-04-19T08:10:44.059Z,13.71
2023-04-19T08:11:44.054Z,13.72
2023-04-19T08:12:50.704Z,13.76
2023-04-19T08:13:55.107Z,13.75
2023-04-19T08:14:59.122Z,13.75
2023-04-19T08:17:19.077Z,13.71
2023-04-19T08:17:45.197Z,13.72
2023-04-19T08:18:43.966Z,13.71
2023-04-19T08:19:43.968Z,13.71
2023-04-19T08:20:43.980Z,13.72
2023-04-19T08:21:43.960Z,13.75
2023-04-19T08:22:43.983Z,13.83
2023-04-19T08:23:48.236Z,13.79
2023-04-19T08:24:43.974Z,13.79
2023-04-19T08:25:43.894Z,13.79
2023-04-19T08:26:43.859Z,13.80
2023-04-19T08:27:43.884Z,13.84
2023-04-19T08:28:43.835Z,13.88
2023-04-19T08:29:43.843Z,13.93
2023-04-19T08:30:43.875Z,13.88
2023-04-19T08:31:43.835Z,13.93
2023-04-19T08:32:43.968Z,13.94
2023-04-19T08:33:44.585Z,14.04
2023-04-19T08:34:43.814Z,14.08
2023-04-19T08:35:43.755Z,14.08
2023-04-19T08:36:55.736Z,13.96
2023-04-19T08:37:44.732Z,13.81
2023-04-19T08:38:46.679Z,13.79
2023-04-19T08:39:44.685Z,13.84
2023-04-19T08:40:43.717Z,13.88
2023-04-19T08:41:44.872Z,13.99
2023-04-19T08:42:43.758Z,14.09
2023-04-19T08:43:43.676Z,14.17
2023-04-19T08:45:05.736Z,14.19
2023-04-19T08:45:44.681Z,14.13
2023-04-19T08:46:43.658Z,14.11
2023-04-19T08:48:43.691Z,14.16
2023-04-19T08:49:43.942Z,14.20
2023-04-19T08:51:00.717Z,14.19
2023-04-19T08:51:44.545Z,14.24
2023-04-19T08:52:54.202Z,14.31
2023-04-19T08:53:44.507Z,14.39
2023-04-19T08:54:43.490Z,14.39
2023-04-19T08:55:58.438Z,14.35
2023-04-19T08:56:44.465Z,14.41
2023-04-19T08:57:43.529Z,14.42
2023-04-19T08:58:57.822Z,14.46
2023-04-19T08:59:44.418Z,14.49
2023-04-19T09:00:43.452Z,14.56
2023-04-19T09:01:44.751Z,14.56
2023-04-19T09:02:43.736Z,14.56
2023-04-19T09:03:58.343Z,14.57
2023-04-19T09:04:44.490Z,14.59
2023-04-19T09:05:43.599Z,14.60
2023-04-19T09:06:43.675Z,14.59
2023-04-19T09:07:43.336Z,14.56
2023-04-19T09:08:43.323Z,14.57
2023-04-19T09:09:59.686Z,14.53
2023-04-19T09:10:44.282Z,14.54
2023-04-19T09:11:43.266Z,14.57
2023-04-19T09:12:43.280Z,14.53
2023-04-19T09:13:43.282Z,14.52
2023-04-19T09:14:50.320Z,14.42
2023-04-19T09:15:44.218Z,14.46
2023-04-19T09:16:43.222Z,14.45
2023-04-19T09:17:43.283Z,14.46
2023-04-19T09:18:56.300Z,14.46
2023-04-19T09:19:44.195Z,14.53
2023-04-19T09:20:43.219Z,14.57
2023-04-19T09:21:43.131Z,14.64
2023-04-19T09:22:43.182Z,14.69
2023-04-19T09:23:43.164Z,14.69
2023-04-19T09:26:09.381Z,14.60
2023-04-19T09:26:44.067Z,14.63
2023-04-19T09:27:43.069Z,14.59
2023-04-19T09:28:43.072Z,14.57
2023-04-19T09:29:43.013Z,14.52
2023-04-19T09:30:55.136Z,14.49
2023-04-19T09:31:51.397Z,14.27
2023-04-19T09:32:44.138Z,14.27
2023-04-19T09:33:43.022Z,14.35
2023-04-19T09:34:43.000Z,14.46
2023-04-19T09:35:42.938Z,14.59
2023-04-19T09:36:42.942Z,14.67
2023-04-19T09:38:42.948Z,14.80
2023-04-19T09:39:42.886Z,14.82
2023-04-19T09:40:42.893Z,14.85
2023-04-19T09:41:43.689Z,14.91
2023-04-19T09:43:58.971Z,14.93
2023-04-19T09:45:16.523Z,14.90
2023-04-19T09:45:43.803Z,14.93
2023-04-19T09:46:42.911Z,14.95
2023-04-19T09:47:42.878Z,14.95
2023-04-19T09:48:42.786Z,14.93
2023-04-19T09:49:48.862Z,14.95
2023-04-19T09:50:54.942Z,14.97
2023-04-19T09:51:43.746Z,15.01
2023-04-19T09:52:42.784Z,15.00
2023-04-19T09:53:42.743Z,15.03
2023-04-19T09:54:42.786Z,14.91
2023-04-19T09:55:57.234Z,14.80
2023-04-19T09:56:43.703Z,14.71
2023-04-19T09:57:42.684Z,14.71
2023-04-19T09:58:51.324Z,14.75
2023-04-19T09:59:43.672Z,14.85
2023-04-19T10:00:48.860Z,14.93
2023-04-19T10:01:43.652Z,14.98
2023-04-19T10:02:42.753Z,15.00
2023-04-19T10:03:42.710Z,15.03
2023-04-19T10:05:02.838Z,15.03
2023-04-19T10:05:43.784Z,14.90
2023-04-19T10:06:58.826Z,14.90
2023-04-19T10:07:43.595Z,14.93
2023-04-19T10:08:42.545Z,14.94
2023-04-19T10:09:49.717Z,15.00
2023-04-19T10:10:45.580Z,15.05
2023-04-19T10:11:44.762Z,15.11
2023-04-19T10:13:42.510Z,15.19
2023-04-19T10:14:42.470Z,15.18
2023-04-19T10:15:50.605Z,15.18
2023-04-19T10:16:43.533Z,15.13
2023-04-19T10:17:42.414Z,15.09
2023-04-19T10:18:42.387Z,15.03
2023-04-19T10:19:42.410Z,15.01
2023-04-19T10:20:42.420Z,15.04
2023-04-19T10:21:42.373Z,15.01
2023-04-19T10:22:42.362Z,15.03
2023-04-19T10:23:42.360Z,15.07
2023-04-19T10:24:44.349Z,15.03
2023-04-19T10:25:42.320Z,15.04
2023-04-19T10:26:42.304Z,15.09
2023-04-19T10:27:42.277Z,15.16
2023-04-19T10:28:42.338Z,15.18
2023-04-19T10:29:42.248Z,15.16
2023-04-19T10:30:42.235Z,15.19
2023-04-19T10:31:42.272Z,15.23
2023-04-19T10:32:42.325Z,15.27
2023-04-19T10:33:42.292Z,15.25
2023-04-19T10:34:42.210Z,15.18
2023-04-19T10:35:42.210Z,15.11
2023-04-19T10:36:42.153Z,15.19
2023-04-19T10:37:42.156Z,15.18
2023-04-19T10:38:42.135Z,15.16
2023-04-19T10:39:42.154Z,15.09
2023-04-19T10:40:42.129Z,15.07
2023-04-19T10:41:42.122Z,15.01
2023-04-19T10:42:42.108Z,14.86
2023-04-19T10:43:42.103Z,14.83
2023-04-19T10:44:42.045Z,14.80
2023-04-19T10:45:42.151Z,14.82
2023-04-19T10:46:42.033Z,14.87
2023-04-19T10:47:42.105Z,14.91
2023-04-19T10:48:42.021Z,14.94
2023-04-19T10:49:42.007Z,14.97
2023-04-19T10:50:41.986Z,15.00
2023-04-19T10:51:41.987Z,15.05
2023-04-19T10:52:41.944Z,15.13
2023-04-19T10:53:41.976Z,15.23
2023-04-19T10:54:41.926Z,15.27
2023-04-19T10:55:41.922Z,15.28
2023-04-19T10:56:41.878Z,15.25
2023-04-19T10:57:41.902Z,15.23
2023-04-19T10:58:41.855Z,15.22
2023-04-19T10:59:42.029Z,15.04
2023-04-19T11:00:41.884Z,14.94
2023-04-19T11:01:41.942Z,14.94
2023-04-19T11:02:41.961Z,15.01
2023-04-19T11:03:42.054Z,15.12
2023-04-19T11:04:41.806Z,15.23
2023-04-19T11:05:41.787Z,15.33
2023-04-19T11:06:41.824Z,15.40
2023-04-19T11:07:41.739Z,15.44
2023-04-19T11:08:41.715Z,15.49
2023-04-19T11:09:41.786Z,15.53
2023-04-19T11:10:41.694Z,15.52
2023-04-19T11:11:41.715Z,15.55
2023-04-19T11:12:41.740Z,15.62
2023-04-19T11:13:41.720Z,15.62
2023-04-19T11:14:41.676Z,15.58
2023-04-19T11:15:41.666Z,15.49
2023-04-19T11:16:45.570Z,15.38
2023-04-19T11:17:41.707Z,15.37
2023-04-19T11:18:41.588Z,15.38
2023-04-19T11:19:41.622Z,15.41
2023-04-19T11:20:41.572Z,15.40
2023-04-19T11:21:41.598Z,15.38
2023-04-19T11:22:41.575Z,15.35
2023-04-19T11:23:41.636Z,15.40
2023-04-19T11:24:41.509Z,15.48
2023-04-19T11:25:41.521Z,15.53
2023-04-19T11:26:41.533Z,15.58
2023-04-19T11:27:41.523Z,15.60
2023-04-19T11:28:41.536Z,15.44
2023-04-19T11:29:41.487Z,15.37
2023-04-19T11:30:41.435Z,15.20
2023-04-19T11:31:41.490Z,15.23
2023-04-19T11:32:41.502Z,15.37
2023-04-19T11:33:41.428Z,15.49
2023-04-19T11:34:41.427Z,15.52
2023-04-19T11:35:41.379Z,15.55
2023-04-19T11:36:41.383Z,15.60
2023-04-19T11:37:41.400Z,15.67
2023-04-19T11:38:41.340Z,15.68
2023-04-19T11:39:41.389Z,15.60
2023-04-19T11:40:41.367Z,15.53
2023-04-19T11:41:41.401Z,15.33
2023-04-19T11:42:41.304Z,15.28
2023-04-19T11:43:41.382Z,15.30
2023-04-19T11:44:41.250Z,15.35
2023-04-19T11:45:41.283Z,15.33
2023-04-19T11:46:41.281Z,15.38
2023-04-19T11:47:41.332Z,15.43
2023-04-19T11:48:41.256Z,15.48
2023-04-19T11:49:41.231Z,15.46
2023-04-19T11:50:41.171Z,15.46
2023-04-19T11:51:41.205Z,15.44
2023-04-19T11:52:41.188Z,15.51
2023-04-19T11:53:41.191Z,15.56
2023-04-19T11:54:41.212Z,15.56
2023-04-19T11:55:41.153Z,15.52
2023-04-19T11:56:41.111Z,15.38
2023-04-19T11:57:41.664Z,15.37
2023-04-19T11:58:41.079Z,15.27
2023-04-19T11:59:41.139Z,15.31
2023-04-19T12:00:41.082Z,15.38
2023-04-19T12:01:41.032Z,15.41
2023-04-19T12:02:41.221Z,15.49
2023-04-19T12:03:41.324Z,15.55
2023-04-19T12:04:41.328Z,15.59
2023-04-19T12:05:41.160Z,15.58
2023-04-19T12:06:40.981Z,15.60
2023-04-19T12:07:40.955Z,15.62
2023-04-19T12:08:40.973Z,15.71
2023-04-19T12:09:40.929Z,15.71
2023-04-19T12:10:40.972Z,15.62
2023-04-19T12:12:36.480Z,15.55
2023-04-19T12:13:36.516Z,15.49
2023-04-19T12:14:36.472Z,15.33
2023-04-19T12:15:36.481Z,15.25
2023-04-19T12:16:36.485Z,15.19
2023-04-19T12:17:40.059Z,15.11
2023-04-19T12:18:37.386Z,15.05
2023-04-19T12:19:36.386Z,15.04
2023-04-19T12:20:36.402Z,14.98
2023-04-19T12:21:36.416Z,14.87
2023-04-19T12:22:36.346Z,14.86
2023-04-19T12:23:36.341Z,14.87
2023-04-19T12:24:36.338Z,14.87
2023-04-19T12:25:36.331Z,14.93
2023-04-19T12:26:36.303Z,14.86
2023-04-19T12:27:36.300Z,14.82
2023-04-19T12:28:36.296Z,14.86
2023-04-19T12:29:36.253Z,14.90
2023-04-19T12:30:36.463Z,14.91
2023-04-19T12:31:36.345Z,14.87
2023-04-19T12:32:36.308Z,14.86
2023-04-19T12:33:36.224Z,14.87
2023-04-19T12:34:36.219Z,14.91
2023-04-19T12:35:36.198Z,15.00
2023-04-19T12:36:36.176Z,15.03
2023-04-19T12:37:36.159Z,15.09
2023-04-19T12:38:36.127Z,15.15
2023-04-19T12:39:36.146Z,15.18
2023-04-19T12:40:36.193Z,15.18
2023-04-19T12:41:36.108Z,15.22
2023-04-19T12:42:36.099Z,15.28
2023-04-19T12:43:36.078Z,15.28
2023-04-19T12:44:36.063Z,15.28
2023-04-19T12:45:36.078Z,15.25
2023-04-19T12:46:36.087Z,15.22
2023-04-19T12:47:36.073Z,15.20
2023-04-19T12:48:36.014Z,15.19
2023-04-19T12:49:35.993Z,15.20
2023-04-19T12:50:36.059Z,15.23
2023-04-19T12:51:35.992Z,15.23
2023-04-19T12:52:35.971Z,15.25
2023-04-19T12:53:35.975Z,15.18
2023-04-19T12:54:35.934Z,15.18
2023-04-19T12:55:35.924Z,15.18
2023-04-19T12:56:35.893Z,15.16
2023-04-19T12:57:35.963Z,15.25
2023-04-19T12:58:35.887Z,15.34
2023-04-19T12:59:35.873Z,15.44